Time,TemperatureF,DewpointF,PressureIn,WindDirection,WindDirectionDegrees,WindSpeedMPH,WindSpeedGustMPH,Humidity,HourlyPrecipIn,Conditions,Clouds,dailyrainin,SoftwareType,DateUTC
2013-12-13 00:00:00,11.2,9.3,30.09,NNW,335,1.0,4.0,92,0.00,,,0.00,Wunderground v.1.15,2013-12-13 06:00:00,
2013-12-13 00:04:00,10.6,8.7,30.09,NNW,334,1.0,4.0,92,0.00,,,0.00,Wunderground v.1.15,2013-12-13 06:04:00,
2013-12-13 00:06:00,10.7,8.8,30.09,NNW,335,1.0,4.0,92,0.00,,,0.00,Wunderground v.1.15,2013-12-13 06:06:00,
2013-12-13 00:08:00,10.7,9.1,30.09,NNW,335,0.0,4.0,93,0.00,,,0.00,Wunderground v.1.15,2013-12-13 06:08:00,
2013-12-13 00:10:00,10.7,9.1,30.09,NNW,335,0.0,0.0,93,0.00,,,0.00,Wunderground v.1.15,2013-12-13 06:10:00,
2013-12-13 00:14:00,10.6,9.0,30.08,NNW,335,0.0,0.0,93,0.00,,,0.00,Wunderground v.1.15,2013-12-13 06:14:00,
2013-12-13 00:15:00,10.6,9.0,30.08,East,98,0.0,0.0,93,0.00,,,0.00,Wunderground v.1.15,2013-12-13 06:15:00,
2013-12-13 00:20:00,10.8,9.2,30.08,East,98,0.0,0.0,93,0.00,,,0.00,Wunderground v.1.15,2013-12-13 06:20:00,
2013-12-13 00:22:00,10.7,9.1,30.08,East,97,0.0,0.0,93,0.00,,,0.00,Wunderground v.1.15,2013-12-13 06:22:00,
2013-12-13 00:24:00,10.7,9.1,30.08,East,97,0.0,0.0,93,0.00,,,0.00,Wunderground v.1.15,2013-12-13 06:24:00,
2013-12-13 00:26:00,10.5,8.6,30.08,East,98,0.0,0.0,92,0.00,,,0.00,Wunderground v.1.15,2013-12-13 06:26:00,
2013-12-13 00:28:00,10.4,8.5,30.08,SE,135,0.0,1.0,92,0.00,,,0.00,Wunderground v.1.15,2013-12-13 06:28:00,
2013-12-13 00:32:00,10.2,8.3,30.09,SE,142,0.0,1.0,92,0.00,,,0.00,Wunderground v.1.15,2013-12-13 06:32:00,
2013-12-13 00:34:00,9.9,8.0,30.09,SE,138,1.0,1.0,92,0.00,,,0.00,Wunderground v.1.15,2013-12-13 06:34:00,
2013-12-13 00:37:00,9.7,7.8,30.09,SE,140,1.0,2.0,92,0.00,,,0.00,Wunderground v.1.15,2013-12-13 06:37:00,
2013-12-13 00:39:00,9.7,7.8,30.09,SE,132,1.0,1.0,92,0.00,,,0.00,Wunderground v.1.15,2013-12-13 06:39:00,
2013-12-13 00:44:00,9.5,7.6,30.09,SSE,149,1.0,1.0,92,0.00,,,0.00,Wunderground v.1.15,2013-12-13 06:44:00,
2013-12-13 00:50:00,9.2,7.1,30.09,SE,135,1.0,1.0,91,0.00,,,0.00,Wunderground v.1.15,2013-12-13 06:50:00,
2013-12-13 00:52:00,9.1,7.0,30.09,SE,130,1.0,1.0,91,0.00,,,0.00,Wunderground v.1.15,2013-12-13 06:52:00,
2013-12-13 00:54:00,9.1,7.0,30.09,SSE,150,0.0,1.0,91,0.00,,,0.00,Wunderground v.1.15,2013-12-13 06:54:00,
2013-12-13 00:56:00,9.1,7.2,30.09,SSE,149,0.0,1.0,92,0.00,,,0.00,Wunderground v.1.15,2013-12-13 06:56:00,
2013-12-13 00:59:00,9.3,7.4,30.09,SSE,149,0.0,1.0,92,0.00,,,0.00,Wunderground v.1.15,2013-12-13 06:59:00,
2013-12-13 01:04:00,9.6,7.7,30.09,SE,136,0.0,2.0,92,0.00,,,0.00,Wunderground v.1.15,2013-12-13 07:04:00,
2013-12-13 01:06:00,9.7,8.1,30.08,SE,132,0.0,2.0,93,0.00,,,0.00,Wunderground v.1.15,2013-12-13 07:06:00,
2013-12-13 01:08:00,9.8,8.2,30.08,SE,132,0.0,2.0,93,0.00,,,0.00,Wunderground v.1.15,2013-12-13 07:08:00,
2013-12-13 01:10:00,9.8,8.2,30.08,SE,132,0.0,2.0,93,0.00,,,0.00,Wunderground v.1.15,2013-12-13 07:10:00,
2013-12-13 01:12:00,9.8,8.2,30.08,SE,132,0.0,2.0,93,0.00,,,0.00,Wunderground v.1.15,2013-12-13 07:12:00,
2013-12-13 01:14:00,9.9,8.3,30.07,East,100,0.0,2.0,93,0.00,,,0.00,Wunderground v.1.15,2013-12-13 07:14:00,
2013-12-13 01:16:00,10.1,8.5,30.07,ESE,104,0.0,2.0,93,0.00,,,0.00,Wunderground v.1.15,2013-12-13 07:16:00,
2013-12-13 01:18:00,10.2,8.6,30.07,NNE,16,0.0,2.0,93,0.00,,,0.00,Wunderground v.1.15,2013-12-13 07:18:00,
2013-12-13 01:19:00,9.8,7.9,30.06,NNE,29,1.0,2.0,92,0.00,,,0.00,Wunderground v.1.15,2013-12-13 07:19:00,
2013-12-13 01:21:00,9.6,7.7,30.06,ENE,58,1.0,2.0,92,0.00,,,0.00,Wunderground v.1.15,2013-12-13 07:21:00,
2013-12-13 01:24:00,9.7,7.8,30.06,ENE,58,1.0,2.0,92,0.00,,,0.00,Wunderground v.1.15,2013-12-13 07:24:00,
2013-12-13 01:26:00,9.8,7.9,30.06,ENE,58,1.0,2.0,92,0.00,,,0.00,Wunderground v.1.15,2013-12-13 07:26:00,
2013-12-13 01:30:00,9.9,8.0,30.06,ENE,58,0.0,2.0,92,0.00,,,0.00,Wunderground v.1.15,2013-12-13 07:30:00,
2013-12-13 01:32:00,9.6,7.7,30.06,ENE,57,0.0,2.0,92,0.00,,,0.00,Wunderground v.1.15,2013-12-13 07:32:00,
2013-12-13 01:36:00,9.5,7.6,30.06,NE,35,1.0,2.0,92,0.00,,,0.00,Wunderground v.1.15,2013-12-13 07:36:00,
2013-12-13 01:38:00,9.3,7.4,30.06,NE,35,1.0,2.0,92,0.00,,,0.00,Wunderground v.1.15,2013-12-13 07:38:00,
2013-12-13 01:40:00,9.2,7.3,30.06,NE,36,1.0,1.0,92,0.00,,,0.00,Wunderground v.1.15,2013-12-13 07:40:00,
2013-12-13 01:41:00,9.1,7.2,30.06,NE,35,1.0,2.0,92,0.00,,,0.00,Wunderground v.1.15,2013-12-13 07:41:00,
2013-12-13 01:43:00,8.7,6.6,30.06,NNW,341,1.0,2.0,91,0.00,,,0.00,Wunderground v.1.15,2013-12-13 07:43:00,
2013-12-13 01:46:00,7.9,5.6,30.06,NNW,329,1.0,2.0,90,0.00,,,0.00,Wunderground v.1.15,2013-12-13 07:46:00,
2013-12-13 01:48:00,7.2,4.6,30.06,NNW,329,0.0,2.0,89,0.00,,,0.00,Wunderground v.1.15,2013-12-13 07:48:00,
2013-12-13 01:50:00,6.8,4.2,30.07,NNW,329,0.0,2.0,89,0.00,,,0.00,Wunderground v.1.15,2013-12-13 07:50:00,
2013-12-13 01:52:00,6.6,4.0,30.06,NNW,329,0.0,2.0,89,0.00,,,0.00,Wunderground v.1.15,2013-12-13 07:52:00,
2013-12-13 01:54:00,6.4,3.9,30.07,NNW,328,0.0,2.0,89,0.00,,,0.00,Wunderground v.1.15,2013-12-13 07:54:00,
2013-12-13 01:56:00,6.4,3.9,30.06,NNW,329,0.0,2.0,89,0.00,,,0.00,Wunderground v.1.15,2013-12-13 07:56:00,
2013-12-13 02:00:00,6.7,4.6,30.06,NNW,329,0.0,2.0,91,0.00,,,0.00,Wunderground v.1.15,2013-12-13 08:00:00,
2013-12-13 02:03:00,7.3,5.5,30.07,SE,138,0.0,2.0,92,0.00,,,0.00,Wunderground v.1.15,2013-12-13 08:03:00,
2013-12-13 02:06:00,7.8,6.0,30.07,SE,135,0.0,2.0,92,0.00,,,0.00,Wunderground v.1.15,2013-12-13 08:06:00,
2013-12-13 02:08:00,8.0,6.4,30.07,ESE,121,1.0,2.0,93,0.00,,,0.00,Wunderground v.1.15,2013-12-13 08:08:00,
2013-12-13 02:10:00,8.2,6.6,30.07,SE,144,1.0,1.0,93,0.00,,,0.00,Wunderground v.1.15,2013-12-13 08:10:00,
2013-12-13 02:12:00,8.3,6.7,30.07,SE,141,1.0,2.0,93,0.00,,,0.00,Wunderground v.1.15,2013-12-13 08:12:00,
2013-12-13 02:14:00,8.4,6.8,30.07,SE,132,1.0,2.0,93,0.00,,,0.00,Wunderground v.1.15,2013-12-13 08:14:00,
2013-12-13 02:16:00,8.5,6.9,30.07,West,266,1.0,2.0,93,0.00,,,0.00,Wunderground v.1.15,2013-12-13 08:16:00,
2013-12-13 02:18:00,8.7,7.1,30.06,SE,142,1.0,2.0,93,0.00,,,0.00,Wunderground v.1.15,2013-12-13 08:18:00,
2013-12-13 02:20:00,8.9,7.3,30.07,SE,132,1.0,2.0,93,0.00,,,0.00,Wunderground v.1.15,2013-12-13 08:20:00,
2013-12-13 02:23:00,9.4,7.8,30.06,SE,137,1.0,2.0,93,0.00,,,0.00,Wunderground v.1.15,2013-12-13 08:23:00,
2013-12-13 02:28:00,9.5,7.9,30.06,SE,141,1.0,2.0,93,0.00,,,0.00,Wunderground v.1.15,2013-12-13 08:28:00,
2013-12-13 02:30:00,9.6,8.0,30.06,SE,135,1.0,2.0,93,0.00,,,0.00,Wunderground v.1.15,2013-12-13 08:30:00,
2013-12-13 02:34:00,9.8,8.2,30.07,SE,139,1.0,2.0,93,0.00,,,0.00,Wunderground v.1.15,2013-12-13 08:34:00,
2013-12-13 02:36:00,9.7,8.1,30.07,SE,139,1.0,2.0,93,0.00,,,0.00,Wunderground v.1.15,2013-12-13 08:36:00,
2013-12-13 02:38:00,9.6,8.0,30.07,SSE,149,1.0,2.0,93,0.00,,,0.00,Wunderground v.1.15,2013-12-13 08:38:00,
2013-12-13 02:42:00,9.4,7.5,30.07,SE,141,1.0,2.0,92,0.00,,,0.00,Wunderground v.1.15,2013-12-13 08:42:00,
2013-12-13 02:45:00,9.2,7.3,30.07,SE,135,1.0,2.0,92,0.00,,,0.00,Wunderground v.1.15,2013-12-13 08:45:00,
2013-12-13 02:50:00,8.7,6.6,30.07,SE,141,1.0,2.0,91,0.00,,,0.00,Wunderground v.1.15,2013-12-13 08:50:00,
2013-12-13 02:52:00,8.4,6.3,30.08,SE,140,1.0,2.0,91,0.00,,,0.00,Wunderground v.1.15,2013-12-13 08:52:00,
2013-12-13 02:54:00,8.3,6.2,30.08,SE,135,1.0,2.0,91,0.00,,,0.00,Wunderground v.1.15,2013-12-13 08:54:00,
2013-12-13 02:56:00,8.1,6.0,30.08,SE,136,1.0,2.0,91,0.00,,,0.00,Wunderground v.1.15,2013-12-13 08:56:00,
2013-12-13 02:58:00,8.1,6.0,30.08,SE,135,1.0,2.0,91,0.00,,,0.00,Wunderground v.1.15,2013-12-13 08:58:00,
2013-12-13 03:00:00,8.1,6.0,30.07,SE,138,1.0,2.0,91,0.00,,,0.00,Wunderground v.1.15,2013-12-13 09:00:00,
2013-12-13 03:02:00,8.1,6.0,30.07,SE,139,1.0,2.0,91,0.00,,,0.00,Wunderground v.1.15,2013-12-13 09:02:00,
2013-12-13 03:04:00,8.0,5.9,30.07,SE,138,1.0,2.0,91,0.00,,,0.00,Wunderground v.1.15,2013-12-13 09:04:00,
2013-12-13 03:05:00,7.8,5.7,30.07,SE,139,1.0,2.0,91,0.00,,,0.00,Wunderground v.1.15,2013-12-13 09:05:00,
2013-12-13 03:10:00,7.7,5.6,30.07,SE,138,1.0,1.0,91,0.00,,,0.00,Wunderground v.1.15,2013-12-13 09:10:00,
2013-12-13 03:12:00,7.8,5.7,30.06,SE,138,1.0,2.0,91,0.00,,,0.00,Wunderground v.1.15,2013-12-13 09:12:00,
2013-12-13 03:14:00,7.7,5.6,30.06,SE,138,1.0,2.0,91,0.00,,,0.00,Wunderground v.1.15,2013-12-13 09:14:00,
2013-12-13 03:16:00,7.7,5.6,30.06,SE,138,0.0,2.0,91,0.00,,,0.00,Wunderground v.1.15,2013-12-13 09:16:00,
2013-12-13 03:20:00,7.6,5.5,30.07,SE,138,0.0,2.0,91,0.00,,,0.00,Wunderground v.1.15,2013-12-13 09:20:00,
2013-12-13 03:22:00,7.5,5.4,30.07,SE,139,0.0,2.0,91,0.00,,,0.00,Wunderground v.1.15,2013-12-13 09:22:00,
2013-12-13 03:24:00,7.5,5.4,30.06,SE,139,0.0,2.0,91,0.00,,,0.00,Wunderground v.1.15,2013-12-13 09:24:00,
2013-12-13 03:26:00,7.7,5.6,30.06,ESE,122,0.0,2.0,91,0.00,,,0.00,Wunderground v.1.15,2013-12-13 09:26:00,
2013-12-13 03:27:00,7.9,6.1,30.06,ESE,122,0.0,2.0,92,0.00,,,0.00,Wunderground v.1.15,2013-12-13 09:27:00,
2013-12-13 03:32:00,8.7,7.1,30.06,SE,139,0.0,2.0,93,0.00,,,0.00,Wunderground v.1.15,2013-12-13 09:32:00,
2013-12-13 03:34:00,9.3,7.7,30.06,ESE,122,1.0,2.0,93,0.00,,,0.00,Wunderground v.1.15,2013-12-13 09:34:00,
2013-12-13 03:36:00,9.7,8.3,30.06,SE,132,1.0,2.0,94,0.00,,,0.00,Wunderground v.1.15,2013-12-13 09:36:00,
2013-12-13 03:42:00,10.4,9.0,30.06,SE,136,1.0,2.0,94,0.00,,,0.00,Wunderground v.1.15,2013-12-13 09:42:00,
2013-12-13 03:46:00,10.5,8.9,30.05,SE,135,1.0,2.0,93,0.00,,,0.00,Wunderground v.1.15,2013-12-13 09:46:00,
2013-12-13 03:48:00,10.4,8.8,30.05,SE,135,0.0,2.0,93,0.00,,,0.00,Wunderground v.1.15,2013-12-13 09:48:00,
2013-12-13 03:49:00,10.4,8.8,30.05,SE,135,0.0,2.0,93,0.00,,,0.00,Wunderground v.1.15,2013-12-13 09:49:00,
2013-12-13 03:51:00,10.3,8.7,30.05,SE,138,0.0,2.0,93,0.00,,,0.00,Wunderground v.1.15,2013-12-13 09:51:00,
2013-12-13 03:54:00,10.0,8.1,30.06,South,172,0.0,2.0,92,0.00,,,0.00,Wunderground v.1.15,2013-12-13 09:54:00,
2013-12-13 03:58:00,9.9,8.0,30.06,South,172,0.0,2.0,92,0.00,,,0.00,Wunderground v.1.15,2013-12-13 09:58:00,
2013-12-13 04:00:00,9.9,8.0,30.05,NE,35,0.0,2.0,92,0.00,,,0.00,Wunderground v.1.15,2013-12-13 10:00:00,
2013-12-13 04:02:00,9.5,7.6,30.05,NE,36,1.0,2.0,92,0.00,,,0.00,Wunderground v.1.15,2013-12-13 10:02:00,
2013-12-13 04:04:00,9.0,6.9,30.06,NE,35,1.0,2.0,91,0.00,,,0.00,Wunderground v.1.15,2013-12-13 10:04:00,
2013-12-13 04:08:00,7.9,5.6,30.06,NE,36,1.0,2.0,90,0.00,,,0.00,Wunderground v.1.15,2013-12-13 10:08:00,
2013-12-13 04:09:00,7.4,4.8,30.05,North,9,1.0,2.0,89,0.00,,,0.00,Wunderground v.1.15,2013-12-13 10:09:00,
2013-12-13 04:14:00,6.6,4.0,30.05,North,9,1.0,2.0,89,0.00,,,0.00,Wunderground v.1.15,2013-12-13 10:14:00,
2013-12-13 04:16:00,6.6,4.0,30.05,North,9,1.0,2.0,89,0.00,,,0.00,Wunderground v.1.15,2013-12-13 10:16:00,
2013-12-13 04:18:00,6.7,4.4,30.05,North,9,1.0,2.0,90,0.00,,,0.00,Wunderground v.1.15,2013-12-13 10:18:00,
2013-12-13 04:20:00,6.7,4.4,30.05,North,9,1.0,1.0,90,0.00,,,0.00,Wunderground v.1.15,2013-12-13 10:20:00,
2013-12-13 04:22:00,7.0,4.7,30.05,North,9,0.0,2.0,90,0.00,,,0.00,Wunderground v.1.15,2013-12-13 10:22:00,
2013-12-13 04:24:00,7.4,5.3,30.05,North,9,0.0,2.0,91,0.00,,,0.00,Wunderground v.1.15,2013-12-13 10:24:00,
2013-12-13 04:30:00,8.1,6.3,30.05,North,9,0.0,2.0,92,0.00,,,0.00,Wunderground v.1.15,2013-12-13 10:30:00,
2013-12-13 04:31:00,8.3,6.5,30.05,North,9,0.0,2.0,92,0.00,,,0.00,Wunderground v.1.15,2013-12-13 10:31:00,
2013-12-13 04:33:00,7.9,5.8,30.05,NNW,333,0.0,2.0,91,0.00,,,0.00,Wunderground v.1.15,2013-12-13 10:33:00,
2013-12-13 04:36:00,7.4,5.1,30.04,NNW,333,1.0,2.0,90,0.00,,,0.00,Wunderground v.1.15,2013-12-13 10:36:00,
2013-12-13 04:38:00,7.1,4.8,30.04,NNW,335,1.0,2.0,90,0.00,,,0.00,Wunderground v.1.15,2013-12-13 10:38:00,
2013-12-13 04:42:00,6.7,4.4,30.04,NNW,347,1.0,2.0,90,0.00,,,0.00,Wunderground v.1.15,2013-12-13 10:42:00,
2013-12-13 04:46:00,6.8,4.5,30.04,North,11,1.0,2.0,90,0.00,,,0.00,Wunderground v.1.15,2013-12-13 10:46:00,
2013-12-13 04:48:00,6.9,4.8,30.04,North,11,1.0,2.0,91,0.00,,,0.00,Wunderground v.1.15,2013-12-13 10:48:00,
2013-12-13 04:50:00,7.0,4.9,30.04,NNW,345,1.0,2.0,91,0.00,,,0.00,Wunderground v.1.15,2013-12-13 10:50:00,
2013-12-13 04:55:00,7.5,5.4,30.04,North,7,2.0,2.0,91,0.00,,,0.00,Wunderground v.1.15,2013-12-13 10:55:00,
2013-12-13 04:58:00,7.6,5.5,30.04,North,8,2.0,2.0,91,0.00,,,0.00,Wunderground v.1.15,2013-12-13 10:58:00,
2013-12-13 05:02:00,7.9,6.1,30.04,NNE,20,2.0,2.0,92,0.00,,,0.00,Wunderground v.1.15,2013-12-13 11:02:00,
2013-12-13 05:04:00,8.1,6.3,30.03,NNE,20,1.0,2.0,92,0.00,,,0.00,Wunderground v.1.15,2013-12-13 11:04:00,
2013-12-13 05:06:00,8.2,6.4,30.03,NNE,20,1.0,2.0,92,0.00,,,0.00,Wunderground v.1.15,2013-12-13 11:06:00,
2013-12-13 05:10:00,8.4,6.6,30.03,NNW,344,1.0,2.0,92,0.00,,,0.00,Wunderground v.1.15,2013-12-13 11:10:00,
2013-12-13 05:14:00,8.5,6.7,30.04,NNW,342,0.0,2.0,92,0.00,,,0.00,Wunderground v.1.15,2013-12-13 11:14:00,
2013-12-13 05:16:00,8.6,6.8,30.04,West,259,0.0,2.0,92,0.00,,,0.00,Wunderground v.1.15,2013-12-13 11:16:00,
2013-12-13 05:19:00,8.9,7.1,30.05,SSW,210,1.0,1.0,92,0.00,,,0.00,Wunderground v.1.15,2013-12-13 11:19:00,
2013-12-13 05:21:00,9.1,7.2,30.05,SSW,210,0.0,2.0,92,0.00,,,0.00,Wunderground v.1.15,2013-12-13 11:21:00,
2013-12-13 05:26:00,9.2,7.3,30.04,SSW,210,0.0,2.0,92,0.00,,,0.00,Wunderground v.1.15,2013-12-13 11:26:00,
2013-12-13 05:30:00,9.2,7.3,30.05,SSW,210,0.0,2.0,92,0.00,,,0.00,Wunderground v.1.15,2013-12-13 11:30:00,
2013-12-13 05:32:00,9.3,7.4,30.05,SSW,210,0.0,2.0,92,0.00,,,0.00,Wunderground v.1.15,2013-12-13 11:32:00,
2013-12-13 05:36:00,8.9,6.8,30.04,NNE,30,1.0,2.0,91,0.00,,,0.00,Wunderground v.1.15,2013-12-13 11:36:00,
2013-12-13 05:38:00,9.0,6.9,30.04,NNE,29,1.0,2.0,91,0.00,,,0.00,Wunderground v.1.15,2013-12-13 11:38:00,
2013-12-13 05:39:00,9.1,7.2,30.04,NNE,30,1.0,1.0,92,0.00,,,0.00,Wunderground v.1.15,2013-12-13 11:39:00,
2013-12-13 05:41:00,9.6,7.7,30.04,ENE,70,1.0,2.0,92,0.00,,,0.00,Wunderground v.1.15,2013-12-13 11:41:00,
2013-12-13 05:48:00,10.7,9.1,30.04,SE,127,1.0,2.0,93,0.00,,,0.00,Wunderground v.1.15,2013-12-13 11:48:00,
2013-12-13 05:50:00,11.0,9.4,30.04,ENE,78,0.0,2.0,93,0.00,,,0.00,Wunderground v.1.15,2013-12-13 11:50:00,
2013-12-13 05:52:00,11.2,9.6,30.04,ENE,78,0.0,2.0,93,0.00,,,0.00,Wunderground v.1.15,2013-12-13 11:52:00,
2013-12-13 05:56:00,11.2,9.6,30.04,ENE,78,0.0,2.0,93,0.00,,,0.00,Wunderground v.1.15,2013-12-13 11:56:00,
2013-12-13 05:58:00,11.1,9.2,30.04,ENE,78,0.0,2.0,92,0.00,,,0.00,Wunderground v.1.15,2013-12-13 11:58:00,
2013-12-13 06:00:00,10.9,9.0,30.04,ENE,75,0.0,2.0,92,0.00,,,0.00,Wunderground v.1.15,2013-12-13 12:00:00,
2013-12-13 06:03:00,10.7,8.8,30.04,NE,43,1.0,2.0,92,0.00,,,0.00,Wunderground v.1.15,2013-12-13 12:03:00,
2013-12-13 06:06:00,10.7,8.8,30.03,NNE,32,1.0,2.0,92,0.00,,,0.00,Wunderground v.1.15,2013-12-13 12:06:00,
2013-12-13 06:10:00,10.8,8.9,30.03,NNE,32,2.0,2.0,92,0.00,,,0.00,Wunderground v.1.15,2013-12-13 12:10:00,
2013-12-13 06:12:00,10.8,8.9,30.03,NNE,32,2.0,2.0,92,0.00,,,0.00,Wunderground v.1.15,2013-12-13 12:12:00,
2013-12-13 06:14:00,10.9,9.0,30.03,NE,34,2.0,2.0,92,0.00,,,0.00,Wunderground v.1.15,2013-12-13 12:14:00,
2013-12-13 06:16:00,10.8,8.9,30.03,North,7,2.0,2.0,92,0.00,,,0.00,Wunderground v.1.15,2013-12-13 12:16:00,
2013-12-13 06:20:00,10.8,8.9,30.05,NNE,18,2.0,2.0,92,0.00,,,0.00,Wunderground v.1.15,2013-12-13 12:20:00,
2013-12-13 06:21:00,10.7,8.8,30.05,NNE,29,2.0,2.0,92,0.00,,,0.00,Wunderground v.1.15,2013-12-13 12:21:00,
2013-12-13 06:25:00,10.5,8.4,30.05,NNE,29,2.0,3.0,91,0.00,,,0.00,Wunderground v.1.15,2013-12-13 12:25:00,
2013-12-13 06:28:00,10.6,8.5,30.05,NNE,23,2.0,4.0,91,0.00,,,0.00,Wunderground v.1.15,2013-12-13 12:28:00,
2013-12-13 06:32:00,10.8,8.9,30.06,NNE,27,3.0,5.0,92,0.00,,,0.00,Wunderground v.1.15,2013-12-13 12:32:00,
2013-12-13 06:34:00,11.0,9.1,30.06,NNE,29,4.0,5.0,92,0.00,,,0.00,Wunderground v.1.15,2013-12-13 12:34:00,
2013-12-13 06:36:00,11.1,9.2,30.06,NNE,31,4.0,5.0,92,0.00,,,0.00,Wunderground v.1.15,2013-12-13 12:36:00,
2013-12-13 06:38:00,11.1,9.2,30.06,NE,42,4.0,5.0,92,0.00,,,0.00,Wunderground v.1.15,2013-12-13 12:38:00,
2013-12-13 06:42:00,10.9,9.0,30.06,NNE,21,5.0,5.0,92,0.00,,,0.00,Wunderground v.1.15,2013-12-13 12:42:00,
2013-12-13 06:43:00,10.9,9.0,30.06,NE,46,5.0,5.0,92,0.00,,,0.00,Wunderground v.1.15,2013-12-13 12:43:00,
2013-12-13 06:45:00,10.9,9.0,30.06,ENE,63,4.0,5.0,92,0.00,,,0.00,Wunderground v.1.15,2013-12-13 12:45:00,
2013-12-13 06:50:00,10.8,8.9,30.06,NE,36,3.0,3.0,92,0.00,,,0.00,Wunderground v.1.15,2013-12-13 12:50:00,
2013-12-13 06:54:00,10.6,8.5,30.06,NE,41,2.0,3.0,91,0.00,,,0.00,Wunderground v.1.15,2013-12-13 12:54:00,
2013-12-13 06:58:00,10.4,8.5,30.05,NE,42,3.0,4.0,92,0.00,,,0.00,Wunderground v.1.15,2013-12-13 12:58:00,
2013-12-13 07:00:00,10.4,8.5,30.05,NNE,23,3.0,5.0,92,0.00,,,0.00,Wunderground v.1.15,2013-12-13 13:00:00,
2013-12-13 07:02:00,10.4,8.5,30.04,NE,56,4.0,5.0,92,0.00,,,0.00,Wunderground v.1.15,2013-12-13 13:02:00,
2013-12-13 07:04:00,10.5,8.6,30.04,NE,52,5.0,5.0,92,0.00,,,0.00,Wunderground v.1.15,2013-12-13 13:04:00,
2013-12-13 07:05:00,10.4,8.5,30.04,NNE,21,5.0,5.0,92,0.00,,,0.00,Wunderground v.1.15,2013-12-13 13:05:00,
2013-12-13 07:12:00,10.4,8.5,30.04,NE,43,5.0,7.0,92,0.00,,,0.00,Wunderground v.1.15,2013-12-13 13:12:00,
2013-12-13 07:14:00,10.3,8.4,30.04,NE,50,4.0,7.0,92,0.00,,,0.00,Wunderground v.1.15,2013-12-13 13:14:00,
2013-12-13 07:18:00,10.3,8.4,30.04,NE,51,5.0,7.0,92,0.00,,,0.00,Wunderground v.1.15,2013-12-13 13:18:00,
2013-12-13 07:22:00,10.3,8.4,30.04,ENE,58,5.0,5.0,92,0.00,,,0.00,Wunderground v.1.15,2013-12-13 13:22:00,
2013-12-13 07:24:00,10.3,8.4,30.04,NE,55,4.0,5.0,92,0.00,,,0.00,Wunderground v.1.15,2013-12-13 13:24:00,
2013-12-13 07:26:00,10.2,8.3,30.04,NE,52,4.0,5.0,92,0.00,,,0.00,Wunderground v.1.15,2013-12-13 13:26:00,
2013-12-13 07:28:00,10.3,8.4,30.04,NNE,31,4.0,5.0,92,0.00,,,0.00,Wunderground v.1.15,2013-12-13 13:28:00,
2013-12-13 07:30:00,10.3,8.4,30.04,NE,51,3.0,5.0,92,0.00,,,0.00,Wunderground v.1.15,2013-12-13 13:30:00,
2013-12-13 07:31:00,10.4,8.5,30.04,ENE,57,4.0,5.0,92,0.00,,,0.00,Wunderground v.1.15,2013-12-13 13:31:00,
2013-12-13 07:33:00,10.5,8.6,30.03,ENE,57,4.0,6.0,92,0.00,,,0.00,Wunderground v.1.15,2013-12-13 13:33:00,
2013-12-13 07:36:00,10.7,8.8,30.04,NE,49,5.0,6.0,92,0.00,,,0.00,Wunderground v.1.15,2013-12-13 13:36:00,
2013-12-13 07:38:00,10.9,9.3,30.04,ENE,60,5.0,6.0,93,0.00,,,0.00,Wunderground v.1.15,2013-12-13 13:38:00,
2013-12-13 07:40:00,11.0,9.4,30.04,ENE,61,5.0,5.0,93,0.00,,,0.00,Wunderground v.1.15,2013-12-13 13:40:00,
2013-12-13 07:42:00,11.2,9.6,30.05,NE,52,5.0,6.0,93,0.00,,,0.00,Wunderground v.1.15,2013-12-13 13:42:00,
2013-12-13 07:44:00,11.3,9.7,30.05,NE,40,5.0,7.0,93,0.00,,,0.00,Wunderground v.1.15,2013-12-13 13:44:00,
2013-12-13 07:46:00,11.4,9.8,30.05,ENE,68,5.0,7.0,93,0.00,,,0.00,Wunderground v.1.15,2013-12-13 13:46:00,
2013-12-13 07:48:00,11.5,9.9,30.05,East,91,5.0,7.0,93,0.00,,,0.00,Wunderground v.1.15,2013-12-13 13:48:00,
2013-12-13 07:50:00,11.6,10.0,30.05,NE,47,5.0,5.0,93,0.00,,,0.00,Wunderground v.1.15,2013-12-13 13:50:00,
2013-12-13 07:53:00,11.8,10.2,30.05,ESE,113,5.0,6.0,93,0.00,,,0.00,Wunderground v.1.15,2013-12-13 13:53:00,
2013-12-13 07:56:00,11.9,10.3,30.05,ENE,57,4.0,6.0,93,0.00,,,0.00,Wunderground v.1.15,2013-12-13 13:56:00,
2013-12-13 08:00:00,12.1,10.5,30.05,ENE,60,5.0,5.0,93,0.00,,,0.00,Wunderground v.1.15,2013-12-13 14:00:00,
2013-12-13 08:02:00,12.2,10.6,30.05,SE,132,5.0,5.0,93,0.00,,,0.00,Wunderground v.1.15,2013-12-13 14:02:00,
2013-12-13 08:06:00,12.4,10.8,30.05,NE,53,4.0,5.0,93,0.00,,,0.00,Wunderground v.1.15,2013-12-13 14:06:00,
2013-12-13 08:08:00,12.5,10.9,30.05,ESE,122,5.0,5.0,93,0.00,,,0.00,Wunderground v.1.15,2013-12-13 14:08:00,
2013-12-13 08:10:00,12.5,10.9,30.05,ESE,115,4.0,4.0,93,0.00,,,0.00,Wunderground v.1.15,2013-12-13 14:10:00,
2013-12-13 08:13:00,12.4,10.5,30.05,NE,52,4.0,8.0,92,0.00,,,0.00,Wunderground v.1.15,2013-12-13 14:13:00,
2013-12-13 08:15:00,12.4,10.5,30.05,ENE,66,4.0,8.0,92,0.00,,,0.00,Wunderground v.1.15,2013-12-13 14:15:00,
2013-12-13 08:20:00,12.3,10.4,30.05,ENE,69,4.0,4.0,92,0.00,,,0.00,Wunderground v.1.15,2013-12-13 14:20:00,
2013-12-13 08:22:00,12.3,10.4,30.05,NE,47,5.0,5.0,92,0.00,,,0.00,Wunderground v.1.15,2013-12-13 14:22:00,
2013-12-13 08:24:00,12.3,10.4,30.06,ENE,67,5.0,5.0,92,0.00,,,0.00,Wunderground v.1.15,2013-12-13 14:24:00,
2013-12-13 08:28:00,12.4,10.5,30.06,ENE,61,4.0,6.0,92,0.00,,,0.00,Wunderground v.1.15,2013-12-13 14:28:00,
2013-12-13 08:30:00,12.6,10.7,30.06,NE,49,5.0,6.0,92,0.00,,,0.00,Wunderground v.1.15,2013-12-13 14:30:00,
2013-12-13 08:32:00,12.6,10.7,30.06,ENE,62,5.0,6.0,92,0.00,,,0.00,Wunderground v.1.15,2013-12-13 14:32:00,
2013-12-13 08:37:00,12.7,10.8,30.06,ENE,62,5.0,6.0,92,0.00,,,0.00,Wunderground v.1.15,2013-12-13 14:37:00,
2013-12-13 08:40:00,12.8,10.9,30.06,NE,55,5.0,6.0,92,0.00,,,0.00,Wunderground v.1.15,2013-12-13 14:40:00,
2013-12-13 08:44:00,12.8,10.9,30.07,ENE,58,5.0,6.0,92,0.00,,,0.00,Wunderground v.1.15,2013-12-13 14:44:00,
2013-12-13 08:46:00,12.8,10.9,30.07,NE,50,5.0,6.0,92,0.00,,,0.00,Wunderground v.1.15,2013-12-13 14:46:00,
2013-12-13 08:48:00,12.8,10.9,30.07,NE,47,5.0,6.0,92,0.00,,,0.00,Wunderground v.1.15,2013-12-13 14:48:00,
2013-12-13 08:50:00,12.9,11.0,30.07,SE,142,4.0,4.0,92,0.00,,,0.00,Wunderground v.1.15,2013-12-13 14:50:00,
2013-12-13 08:54:00,12.9,11.0,30.07,NE,46,3.0,4.0,92,0.00,,,0.00,Wunderground v.1.15,2013-12-13 14:54:00,
2013-12-13 08:55:00,13.0,11.1,30.07,NE,50,4.0,5.0,92,0.00,,,0.00,Wunderground v.1.15,2013-12-13 14:55:00,
2013-12-13 08:57:00,12.9,11.0,30.07,NE,39,4.0,6.0,92,0.00,,,0.00,Wunderground v.1.15,2013-12-13 14:57:00,
2013-12-13 09:00:00,12.9,11.0,30.07,NE,52,5.0,7.0,92,0.00,,,0.00,Wunderground v.1.15,2013-12-13 15:00:00,
2013-12-13 09:02:00,12.9,11.0,30.07,ENE,60,6.0,7.0,92,0.00,,,0.00,Wunderground v.1.15,2013-12-13 15:02:00,
2013-12-13 09:04:00,12.8,10.9,30.07,ENE,58,6.0,7.0,92,0.00,,,0.00,Wunderground v.1.15,2013-12-13 15:04:00,
2013-12-13 09:10:00,12.7,10.8,30.06,ENE,58,7.0,8.0,92,0.00,,,0.00,Wunderground v.1.15,2013-12-13 15:10:00,
2013-12-13 09:12:00,12.7,10.8,30.06,NNE,30,7.0,10.0,92,0.00,,,0.00,Wunderground v.1.15,2013-12-13 15:12:00,
2013-12-13 09:14:00,12.7,10.8,30.07,ENE,60,7.0,10.0,92,0.00,,,0.00,Wunderground v.1.15,2013-12-13 15:14:00,
2013-12-13 09:17:00,12.7,10.8,30.07,ENE,67,7.0,10.0,92,0.00,,,0.00,Wunderground v.1.15,2013-12-13 15:17:00,
2013-12-13 09:22:00,12.8,10.9,30.07,NE,44,6.0,7.0,92,0.00,,,0.00,Wunderground v.1.15,2013-12-13 15:22:00,
2013-12-13 09:24:00,12.9,11.0,30.08,NNE,32,6.0,7.0,92,0.00,,,0.00,Wunderground v.1.15,2013-12-13 15:24:00,
2013-12-13 09:28:00,13.0,11.1,30.08,NE,52,6.0,7.0,92,0.00,,,0.00,Wunderground v.1.15,2013-12-13 15:28:00,
2013-12-13 09:34:00,13.2,11.3,30.08,SE,135,4.0,6.0,92,0.00,,,0.00,Wunderground v.1.15,2013-12-13 15:34:00,
2013-12-13 09:36:00,13.4,11.8,30.07,ENE,58,4.0,6.0,93,0.00,,,0.00,Wunderground v.1.15,2013-12-13 15:36:00,
2013-12-13 09:39:00,13.5,11.6,30.07,NE,46,5.0,7.0,92,0.00,,,0.00,Wunderground v.1.15,2013-12-13 15:39:00,
2013-12-13 09:41:00,13.6,11.7,30.07,ENE,68,5.0,11.0,92,0.00,,,0.00,Wunderground v.1.15,2013-12-13 15:41:00,
2013-12-13 09:46:00,13.7,11.8,30.07,NNE,31,6.0,11.0,92,0.00,,,0.00,Wunderground v.1.15,2013-12-13 15:46:00,
2013-12-13 09:48:00,13.9,12.0,30.07,NE,40,6.0,11.0,92,0.00,,,0.00,Wunderground v.1.15,2013-12-13 15:48:00,
2013-12-13 09:50:00,14.0,12.3,30.07,ENE,61,7.0,9.0,93,0.00,,,0.00,Wunderground v.1.15,2013-12-13 15:50:00,
2013-12-13 09:52:00,14.1,12.4,30.07,NE,55,7.0,9.0,93,0.00,,,0.00,Wunderground v.1.15,2013-12-13 15:52:00,
2013-12-13 09:54:00,14.2,12.5,30.07,ENE,64,7.0,9.0,93,0.00,,,0.00,Wunderground v.1.15,2013-12-13 15:54:00,
2013-12-13 09:58:00,14.4,12.5,30.07,ENE,77,7.0,9.0,92,0.00,,,0.00,Wunderground v.1.15,2013-12-13 15:58:00,
2013-12-13 09:59:00,14.5,12.8,30.07,NNE,15,7.0,7.0,93,0.00,,,0.00,Wunderground v.1.15,2013-12-13 15:59:00,
2013-12-13 10:01:00,14.6,12.7,30.07,ESE,110,7.0,8.0,92,0.00,,,0.00,Wunderground v.1.15,2013-12-13 16:01:00,
2013-12-13 10:08:00,14.7,12.8,30.07,ENE,62,6.0,13.0,92,0.00,,,0.00,Wunderground v.1.15,2013-12-13 16:08:00,
2013-12-13 10:10:00,14.8,12.9,30.07,ENE,77,6.0,9.0,92,0.00,,,0.00,Wunderground v.1.15,2013-12-13 16:10:00,
2013-12-13 10:12:00,14.8,12.9,30.07,NE,43,6.0,9.0,92,0.00,,,0.00,Wunderground v.1.15,2013-12-13 16:12:00,
2013-12-13 10:14:00,14.9,13.0,30.07,ENE,57,6.0,9.0,92,0.00,,,0.00,Wunderground v.1.15,2013-12-13 16:14:00,
2013-12-13 10:16:00,15.0,13.1,30.07,NE,40,6.0,9.0,92,0.00,,,0.00,Wunderground v.1.15,2013-12-13 16:16:00,
2013-12-13 10:18:00,15.1,13.2,30.07,NE,56,6.0,9.0,92,0.00,,,0.00,Wunderground v.1.15,2013-12-13 16:18:00,
2013-12-13 10:21:00,15.3,13.4,30.07,ENE,57,6.0,11.0,92,0.00,,,0.00,Wunderground v.1.15,2013-12-13 16:21:00,
2013-12-13 10:23:00,15.4,13.5,30.07,NE,49,6.0,11.0,92,0.00,,,0.00,Wunderground v.1.15,2013-12-13 16:23:00,
2013-12-13 10:26:00,15.5,13.6,30.07,East,86,6.0,11.0,92,0.00,,,0.00,Wunderground v.1.15,2013-12-13 16:26:00,
2013-12-13 10:28:00,15.6,13.7,30.07,NE,51,6.0,11.0,92,0.00,,,0.00,Wunderground v.1.15,2013-12-13 16:28:00,
2013-12-13 10:30:00,15.8,13.9,30.07,SE,124,6.0,7.0,92,0.00,,,0.00,Wunderground v.1.15,2013-12-13 16:30:00,
2013-12-13 10:36:00,16.0,14.1,30.07,NE,55,6.0,7.0,92,0.00,,,0.00,Wunderground v.1.15,2013-12-13 16:36:00,
2013-12-13 10:42:00,16.4,14.5,30.07,East,91,6.0,7.0,92,0.00,,,0.00,Wunderground v.1.15,2013-12-13 16:42:00,
2013-12-13 10:43:00,16.5,14.6,30.07,ENE,60,6.0,8.0,92,0.00,,,0.00,Wunderground v.1.15,2013-12-13 16:43:00,
2013-12-13 10:45:00,16.5,14.6,30.07,ESE,113,6.0,8.0,92,0.00,,,0.00,Wunderground v.1.15,2013-12-13 16:45:00,
2013-12-13 10:50:00,16.6,14.4,30.07,ENE,58,6.0,6.0,91,0.00,,,0.00,Wunderground v.1.15,2013-12-13 16:50:00,
2013-12-13 10:52:00,16.7,14.5,30.07,NE,53,6.0,6.0,91,0.00,,,0.00,Wunderground v.1.15,2013-12-13 16:52:00,
2013-12-13 10:54:00,16.8,14.6,30.07,NE,44,6.0,8.0,91,0.00,,,0.00,Wunderground v.1.15,2013-12-13 16:54:00,
2013-12-13 10:56:00,16.8,14.6,30.07,ESE,116,7.0,8.0,91,0.00,,,0.00,Wunderground v.1.15,2013-12-13 16:56:00,
2013-12-13 10:58:00,17.0,14.8,30.07,East,89,7.0,8.0,91,0.00,,,0.00,Wunderground v.1.15,2013-12-13 16:58:00,
2013-12-13 11:00:00,17.1,14.9,30.07,NE,44,6.0,9.0,91,0.00,,,0.00,Wunderground v.1.15,2013-12-13 17:00:00,
2013-12-13 11:02:00,17.2,15.0,30.07,ESE,115,7.0,9.0,91,0.00,,,0.00,Wunderground v.1.15,2013-12-13 17:02:00,
2013-12-13 11:03:00,17.3,15.1,30.07,NE,53,7.0,10.0,91,0.00,,,0.00,Wunderground v.1.15,2013-12-13 17:03:00,
2013-12-13 11:05:00,17.5,15.3,30.07,NE,51,6.0,10.0,91,0.00,,,0.00,Wunderground v.1.15,2013-12-13 17:05:00,
2013-12-13 11:08:00,17.6,15.4,30.07,North,4,7.0,10.0,91,0.00,,,0.00,Wunderground v.1.15,2013-12-13 17:08:00,
2013-12-13 11:10:00,17.8,15.4,30.07,ENE,63,7.0,8.0,90,0.00,,,0.00,Wunderground v.1.15,2013-12-13 17:10:00,
2013-12-13 11:12:00,17.8,15.4,30.07,ENE,62,7.0,8.0,90,0.00,,,0.00,Wunderground v.1.15,2013-12-13 17:12:00,
2013-12-13 11:16:00,18.1,15.7,30.06,East,82,7.0,11.0,90,0.00,,,0.00,Wunderground v.1.15,2013-12-13 17:16:00,
2013-12-13 11:18:00,18.2,15.8,30.06,NE,51,7.0,13.0,90,0.00,,,0.00,Wunderground v.1.15,2013-12-13 17:18:00,
2013-12-13 11:20:00,18.3,15.9,30.06,ENE,65,7.0,7.0,90,0.00,,,0.00,Wunderground v.1.15,2013-12-13 17:20:00,
2013-12-13 11:22:00,18.5,16.1,30.06,NE,52,7.0,7.0,90,0.00,,,0.00,Wunderground v.1.15,2013-12-13 17:22:00,
2013-12-13 11:25:00,18.8,16.1,30.06,ENE,72,6.0,10.0,89,0.00,,,0.00,Wunderground v.1.15,2013-12-13 17:25:00,
2013-12-13 11:27:00,18.8,16.1,30.06,ENE,70,6.0,10.0,89,0.00,,,0.00,Wunderground v.1.15,2013-12-13 17:27:00,
2013-12-13 11:32:00,19.1,16.4,30.06,ESE,108,7.0,7.0,89,0.00,,,0.00,Wunderground v.1.15,2013-12-13 17:32:00,
2013-12-13 11:36:00,19.4,16.7,30.06,ENE,67,6.0,7.0,89,0.00,,,0.00,Wunderground v.1.15,2013-12-13 17:36:00,
2013-12-13 11:38:00,19.6,16.9,30.06,West,273,6.0,7.0,89,0.00,,,0.00,Wunderground v.1.15,2013-12-13 17:38:00,
2013-12-13 11:40:00,19.8,17.1,30.06,SSE,158,6.0,6.0,89,0.00,,,0.00,Wunderground v.1.15,2013-12-13 17:40:00,
2013-12-13 11:44:00,20.1,17.1,30.06,East,96,5.0,10.0,88,0.00,,,0.00,Wunderground v.1.15,2013-12-13 17:44:00,
2013-12-13 11:47:00,20.2,17.2,30.06,NNE,29,6.0,10.0,88,0.00,,,0.00,Wunderground v.1.15,2013-12-13 17:47:00,
2013-12-13 11:49:00,20.2,17.2,30.06,ENE,57,6.0,8.0,88,0.00,,,0.00,Wunderground v.1.15,2013-12-13 17:49:00,
2013-12-13 11:52:00,20.3,17.0,30.05,ENE,70,7.0,8.0,87,0.00,,,0.00,Wunderground v.1.15,2013-12-13 17:52:00,
2013-12-13 11:54:00,20.4,17.1,30.05,ESE,111,7.0,8.0,87,0.00,,,0.00,Wunderground v.1.15,2013-12-13 17:54:00,
2013-12-13 11:56:00,20.6,17.3,30.05,South,177,6.0,8.0,87,0.00,,,0.00,Wunderground v.1.15,2013-12-13 17:56:00,
2013-12-13 12:00:00,20.9,17.6,30.05,East,82,5.0,5.0,87,0.00,,,0.00,Wunderground v.1.15,2013-12-13 18:00:00,
2013-12-13 12:04:00,20.9,17.4,30.05,SE,125,5.0,9.0,86,0.00,,,0.00,Wunderground v.1.15,2013-12-13 18:04:00,
2013-12-13 12:06:00,20.8,17.3,30.05,ENE,66,6.0,9.0,86,0.00,,,0.00,Wunderground v.1.15,2013-12-13 18:06:00,
2013-12-13 12:07:00,20.8,17.3,30.05,East,97,7.0,9.0,86,0.00,,,0.00,Wunderground v.1.15,2013-12-13 18:07:00,
2013-12-13 12:09:00,20.8,17.3,30.05,ENE,61,7.0,7.0,86,0.00,,,0.00,Wunderground v.1.15,2013-12-13 18:09:00,
2013-12-13 12:14:00,20.9,17.4,30.05,ESE,105,7.0,7.0,86,0.00,,,0.00,Wunderground v.1.15,2013-12-13 18:14:00,
2013-12-13 12:16:00,21.1,17.6,30.05,ENE,66,7.0,7.0,86,0.00,,,0.00,Wunderground v.1.15,2013-12-13 18:16:00,
2013-12-13 12:18:00,21.1,17.6,30.05,NE,36,7.0,10.0,86,0.00,,,0.00,Wunderground v.1.15,2013-12-13 18:18:00,
2013-12-13 12:20:00,21.2,17.7,30.05,NE,39,6.0,6.0,86,0.00,,,0.00,Wunderground v.1.15,2013-12-13 18:20:00,
2013-12-13 12:22:00,21.2,17.7,30.05,NE,39,6.0,9.0,86,0.00,,,0.00,Wunderground v.1.15,2013-12-13 18:22:00,
2013-12-13 12:24:00,21.3,17.8,30.05,SSW,203,6.0,9.0,86,0.00,,,0.00,Wunderground v.1.15,2013-12-13 18:24:00,
2013-12-13 12:29:00,21.3,17.8,30.05,ESE,105,6.0,9.0,86,0.00,,,0.00,Wunderground v.1.15,2013-12-13 18:29:00,
2013-12-13 12:31:00,21.3,17.8,30.05,NE,50,6.0,9.0,86,0.00,,,0.00,Wunderground v.1.15,2013-12-13 18:31:00,
2013-12-13 12:36:00,21.3,17.8,30.05,ENE,60,6.0,9.0,86,0.00,,,0.00,Wunderground v.1.15,2013-12-13 18:36:00,
2013-12-13 12:40:00,21.3,17.8,30.04,East,99,6.0,6.0,86,0.00,,,0.00,Wunderground v.1.15,2013-12-13 18:40:00,
2013-12-13 12:42:00,21.3,17.8,30.05,SE,136,6.0,6.0,86,0.00,,,0.00,Wunderground v.1.15,2013-12-13 18:42:00,
2013-12-13 12:44:00,21.3,17.8,30.04,ENE,64,6.0,6.0,86,0.00,,,0.00,Wunderground v.1.15,2013-12-13 18:44:00,
2013-12-13 12:46:00,21.3,17.8,30.04,SSW,193,6.0,6.0,86,0.00,,,0.00,Wunderground v.1.15,2013-12-13 18:46:00,
2013-12-13 12:48:00,21.3,17.8,30.04,NW,312,5.0,6.0,86,0.00,,,0.00,Wunderground v.1.15,2013-12-13 18:48:00,
2013-12-13 12:50:00,21.3,17.8,30.04,South,177,5.0,5.0,86,0.00,,,0.00,Wunderground v.1.15,2013-12-13 18:50:00,
2013-12-13 12:53:00,21.3,17.8,30.05,ENE,72,5.0,12.0,86,0.00,,,0.00,Wunderground v.1.15,2013-12-13 18:53:00,
2013-12-13 12:56:00,21.2,17.7,30.05,NE,42,5.0,12.0,86,0.00,,,0.00,Wunderground v.1.15,2013-12-13 18:56:00,
2013-12-13 13:02:00,21.0,17.5,30.04,NNE,30,6.0,6.0,86,0.00,,,0.00,Wunderground v.1.15,2013-12-13 19:02:00,
2013-12-13 13:04:00,20.9,17.4,30.04,SSE,158,6.0,7.0,86,0.00,,,0.00,Wunderground v.1.15,2013-12-13 19:04:00,
2013-12-13 13:06:00,20.8,17.3,30.04,ENE,65,6.0,16.0,86,0.00,,,0.00,Wunderground v.1.15,2013-12-13 19:06:00,
2013-12-13 13:11:00,20.8,17.5,30.04,NE,48,7.0,16.0,87,0.00,,,0.00,Wunderground v.1.15,2013-12-13 19:11:00,
2013-12-13 13:16:00,20.8,17.5,30.04,ENE,66,8.0,16.0,87,0.00,,,0.00,Wunderground v.1.15,2013-12-13 19:16:00,
2013-12-13 13:18:00,20.8,17.5,30.04,NE,54,7.0,16.0,87,0.00,,,0.00,Wunderground v.1.15,2013-12-13 19:18:00,
2013-12-13 13:20:00,20.8,17.5,30.04,ENE,68,7.0,16.0,87,0.00,,,0.00,Wunderground v.1.15,2013-12-13 19:20:00,
2013-12-13 13:22:00,20.8,17.5,30.04,ENE,58,7.0,16.0,87,0.00,,,0.00,Wunderground v.1.15,2013-12-13 19:22:00,
2013-12-13 13:24:00,20.8,17.5,30.04,NE,44,7.0,16.0,87,0.00,,,0.00,Wunderground v.1.15,2013-12-13 19:24:00,
2013-12-13 13:26:00,20.8,17.5,30.04,ENE,60,7.0,16.0,87,0.00,,,0.00,Wunderground v.1.15,2013-12-13 19:26:00,
2013-12-13 13:30:00,20.7,17.4,30.04,NE,53,7.0,7.0,87,0.00,,,0.00,Wunderground v.1.15,2013-12-13 19:30:00,
2013-12-13 13:32:00,20.7,17.4,30.04,ENE,60,8.0,8.0,87,0.00,,,0.00,Wunderground v.1.15,2013-12-13 19:32:00,
2013-12-13 13:33:00,20.7,17.4,30.05,ENE,62,8.0,16.0,87,0.00,,,0.00,Wunderground v.1.15,2013-12-13 19:33:00,
2013-12-13 13:35:00,20.7,17.4,30.05,NE,56,8.0,16.0,87,0.00,,,0.00,Wunderground v.1.15,2013-12-13 19:35:00,
2013-12-13 13:38:00,20.8,17.5,30.04,ENE,65,8.0,16.0,87,0.00,,,0.00,Wunderground v.1.15,2013-12-13 19:38:00,
2013-12-13 13:40:00,20.9,17.6,30.05,NE,37,8.0,16.0,87,0.00,,,0.00,Wunderground v.1.15,2013-12-13 19:40:00,
2013-12-13 13:42:00,21.0,17.7,30.05,ENE,64,8.0,16.0,87,0.00,,,0.00,Wunderground v.1.15,2013-12-13 19:42:00,
2013-12-13 13:48:00,21.1,17.6,30.05,NE,52,8.0,16.0,86,0.00,,,0.00,Wunderground v.1.15,2013-12-13 19:48:00,
2013-12-13 13:52:00,21.2,17.9,30.05,NE,39,8.0,16.0,87,0.00,,,0.00,Wunderground v.1.15,2013-12-13 19:52:00,
2013-12-13 13:54:00,21.3,17.8,30.05,NE,49,7.0,16.0,86,0.00,,,0.00,Wunderground v.1.15,2013-12-13 19:54:00,
2013-12-13 13:55:00,21.3,17.8,30.05,ENE,72,7.0,16.0,86,0.00,,,0.00,Wunderground v.1.15,2013-12-13 19:55:00,
2013-12-13 14:00:00,21.5,18.0,30.05,NE,44,7.0,16.0,86,0.00,,,0.00,Wunderground v.1.15,2013-12-13 20:00:00,
2013-12-13 14:02:00,21.5,18.0,30.05,NE,56,7.0,16.0,86,0.00,,,0.00,Wunderground v.1.15,2013-12-13 20:02:00,
2013-12-13 14:06:00,21.7,18.2,30.05,NE,46,8.0,16.0,86,0.00,,,0.00,Wunderground v.1.15,2013-12-13 20:06:00,
2013-12-13 14:08:00,21.6,18.1,30.05,NE,51,9.0,16.0,86,0.00,,,0.00,Wunderground v.1.15,2013-12-13 20:08:00,
2013-12-13 14:10:00,21.6,18.1,30.05,NE,34,8.0,8.0,86,0.00,,,0.00,Wunderground v.1.15,2013-12-13 20:10:00,
2013-12-13 14:12:00,21.6,18.1,30.05,ENE,60,8.0,16.0,86,0.00,,,0.00,Wunderground v.1.15,2013-12-13 20:12:00,
2013-12-13 14:14:00,21.6,18.1,30.05,ENE,57,8.0,16.0,86,0.00,,,0.00,Wunderground v.1.15,2013-12-13 20:14:00,
2013-12-13 14:15:00,21.7,18.2,30.05,NE,54,7.0,16.0,86,0.00,,,0.00,Wunderground v.1.15,2013-12-13 20:15:00,
2013-12-13 14:20:00,21.6,18.1,30.05,NE,47,8.0,16.0,86,0.00,,,0.00,Wunderground v.1.15,2013-12-13 20:20:00,
2013-12-13 14:22:00,21.6,18.3,30.05,NE,47,8.0,16.0,87,0.00,,,0.00,Wunderground v.1.15,2013-12-13 20:22:00,
2013-12-13 14:24:00,21.6,18.3,30.05,East,86,8.0,16.0,87,0.00,,,0.00,Wunderground v.1.15,2013-12-13 20:24:00,
2013-12-13 14:26:00,21.5,18.2,30.05,ENE,63,8.0,16.0,87,0.00,,,0.00,Wunderground v.1.15,2013-12-13 20:26:00,
2013-12-13 14:28:00,21.5,18.2,30.05,NE,42,8.0,16.0,87,0.00,,,0.00,Wunderground v.1.15,2013-12-13 20:28:00,
2013-12-13 14:32:00,21.2,17.7,30.05,ENE,57,8.0,16.0,86,0.00,,,0.00,Wunderground v.1.15,2013-12-13 20:32:00,
2013-12-13 14:34:00,21.2,17.7,30.05,NE,54,9.0,16.0,86,0.00,,,0.00,Wunderground v.1.15,2013-12-13 20:34:00,
2013-12-13 14:36:00,21.1,17.8,30.05,NE,53,9.0,16.0,87,0.00,,,0.00,Wunderground v.1.15,2013-12-13 20:36:00,
2013-12-13 14:42:00,21.0,17.5,30.05,ENE,57,8.0,16.0,86,0.00,,,0.00,Wunderground v.1.15,2013-12-13 20:42:00,
2013-12-13 14:44:00,21.0,17.5,30.05,North,11,8.0,16.0,86,0.00,,,0.00,Wunderground v.1.15,2013-12-13 20:44:00,
2013-12-13 14:46:00,21.0,17.5,30.06,NNE,33,8.0,16.0,86,0.00,,,0.00,Wunderground v.1.15,2013-12-13 20:46:00,
2013-12-13 14:50:00,20.9,17.4,30.05,ESE,107,10.0,16.0,86,0.00,,,0.00,Wunderground v.1.15,2013-12-13 20:50:00,
2013-12-13 14:52:00,20.9,17.4,30.06,ENE,60,10.0,16.0,86,0.00,,,0.00,Wunderground v.1.15,2013-12-13 20:52:00,
2013-12-13 14:56:00,20.8,17.3,30.05,ENE,57,11.0,16.0,86,0.00,,,0.00,Wunderground v.1.15,2013-12-13 20:56:00,
2013-12-13 14:58:00,20.8,17.3,30.05,NE,49,10.0,16.0,86,0.00,,,0.00,Wunderground v.1.15,2013-12-13 20:58:00,
2013-12-13 15:01:00,20.8,17.3,30.05,ENE,60,9.0,16.0,86,0.00,,,0.00,Wunderground v.1.15,2013-12-13 21:01:00,
2013-12-13 15:04:00,20.9,17.4,30.05,NE,49,9.0,16.0,86,0.00,,,0.00,Wunderground v.1.15,2013-12-13 21:04:00,
2013-12-13 15:06:00,20.9,17.4,30.06,East,98,8.0,16.0,86,0.00,,,0.00,Wunderground v.1.15,2013-12-13 21:06:00,
2013-12-13 15:08:00,20.8,17.3,30.06,ENE,59,8.0,16.0,86,0.00,,,0.00,Wunderground v.1.15,2013-12-13 21:08:00,
2013-12-13 15:12:00,20.9,17.4,30.06,ENE,60,9.0,16.0,86,0.00,,,0.00,Wunderground v.1.15,2013-12-13 21:12:00,
2013-12-13 15:14:00,20.9,17.4,30.05,NNE,24,9.0,16.0,86,0.00,,,0.00,Wunderground v.1.15,2013-12-13 21:14:00,
2013-12-13 15:16:00,20.9,17.4,30.05,ENE,69,9.0,16.0,86,0.00,,,0.00,Wunderground v.1.15,2013-12-13 21:16:00,
2013-12-13 15:19:00,21.0,17.2,30.05,NE,56,9.0,9.0,85,0.00,,,0.00,Wunderground v.1.15,2013-12-13 21:19:00,
2013-12-13 15:21:00,21.0,17.2,30.05,ENE,59,9.0,16.0,85,0.00,,,0.00,Wunderground v.1.15,2013-12-13 21:21:00,
2013-12-13 15:28:00,21.1,17.3,30.05,NE,42,8.0,16.0,85,0.00,,,0.00,Wunderground v.1.15,2013-12-13 21:28:00,
2013-12-13 15:30:00,21.1,17.3,30.05,NE,53,8.0,8.0,85,0.00,,,0.00,Wunderground v.1.15,2013-12-13 21:30:00,
2013-12-13 15:32:00,21.1,17.3,30.05,NE,56,8.0,16.0,85,0.00,,,0.00,Wunderground v.1.15,2013-12-13 21:32:00,
2013-12-13 15:36:00,21.0,17.5,30.06,ENE,65,8.0,16.0,86,0.00,,,0.00,Wunderground v.1.15,2013-12-13 21:36:00,
2013-12-13 15:38:00,20.9,17.6,30.06,ENE,59,9.0,16.0,87,0.00,,,0.00,Wunderground v.1.15,2013-12-13 21:38:00,
2013-12-13 15:40:00,20.8,17.5,30.06,NE,53,9.0,16.0,87,0.00,,,0.00,Wunderground v.1.15,2013-12-13 21:40:00,
2013-12-13 15:41:00,20.7,17.4,30.06,NE,56,10.0,16.0,87,0.00,,,0.00,Wunderground v.1.15,2013-12-13 21:41:00,
2013-12-13 15:46:00,20.6,17.3,30.06,ENE,59,10.0,16.0,87,0.00,,,0.00,Wunderground v.1.15,2013-12-13 21:46:00,
2013-12-13 15:48:00,20.5,17.2,30.06,East,82,10.0,16.0,87,0.00,,,0.00,Wunderground v.1.15,2013-12-13 21:48:00,
2013-12-13 15:50:00,20.4,17.1,30.06,NE,49,9.0,16.0,87,0.00,,,0.00,Wunderground v.1.15,2013-12-13 21:50:00,
2013-12-13 15:52:00,20.3,17.0,30.06,ENE,60,9.0,16.0,87,0.00,,,0.00,Wunderground v.1.15,2013-12-13 21:52:00,
2013-12-13 15:54:00,20.3,17.0,30.06,NE,52,8.0,16.0,87,0.00,,,0.00,Wunderground v.1.15,2013-12-13 21:54:00,
2013-12-13 15:56:00,20.2,17.0,30.07,NE,50,8.0,16.0,87,0.00,,,0.00,Wunderground v.1.15,2013-12-13 21:56:00,
2013-12-13 16:00:00,20.1,16.9,30.07,NE,41,7.0,16.0,87,0.00,,,0.00,Wunderground v.1.15,2013-12-13 22:00:00,
2013-12-13 16:02:00,20.0,16.8,30.07,NE,49,7.0,16.0,87,0.00,,,0.00,Wunderground v.1.15,2013-12-13 22:02:00,
2013-12-13 16:03:00,20.0,16.8,30.07,NE,53,8.0,16.0,87,0.00,,,0.00,Wunderground v.1.15,2013-12-13 22:03:00,
2013-12-13 16:05:00,19.9,16.7,30.07,NE,47,8.0,16.0,87,0.00,,,0.00,Wunderground v.1.15,2013-12-13 22:05:00,
2013-12-13 16:08:00,19.9,16.7,30.07,NE,56,9.0,16.0,87,0.00,,,0.00,Wunderground v.1.15,2013-12-13 22:08:00,
2013-12-13 16:14:00,19.7,16.5,30.08,SSE,150,9.0,16.0,87,0.00,,,0.00,Wunderground v.1.15,2013-12-13 22:14:00,
2013-12-13 16:18:00,19.6,16.4,30.07,NE,47,8.0,16.0,87,0.00,,,0.00,Wunderground v.1.15,2013-12-13 22:18:00,
2013-12-13 16:20:00,19.6,16.4,30.08,ENE,62,8.0,8.0,87,0.00,,,0.00,Wunderground v.1.15,2013-12-13 22:20:00,
2013-12-13 16:23:00,19.6,16.4,30.08,ENE,65,8.0,11.0,87,0.00,,,0.00,Wunderground v.1.15,2013-12-13 22:23:00,
2013-12-13 16:25:00,19.5,16.3,30.08,NE,42,8.0,14.0,87,0.00,,,0.00,Wunderground v.1.15,2013-12-13 22:25:00,
2013-12-13 16:28:00,19.5,16.3,30.08,NE,39,8.0,16.0,87,0.00,,,0.00,Wunderground v.1.15,2013-12-13 22:28:00,
2013-12-13 16:30:00,19.4,16.2,30.08,East,84,8.0,8.0,87,0.00,,,0.00,Wunderground v.1.15,2013-12-13 22:30:00,
2013-12-13 16:34:00,19.4,16.2,30.08,NE,42,8.0,16.0,87,0.00,,,0.00,Wunderground v.1.15,2013-12-13 22:34:00,
2013-12-13 16:38:00,19.3,16.1,30.09,East,85,8.0,16.0,87,0.00,,,0.00,Wunderground v.1.15,2013-12-13 22:38:00,
2013-12-13 16:42:00,19.2,16.0,30.09,NE,49,7.0,16.0,87,0.00,,,0.00,Wunderground v.1.15,2013-12-13 22:42:00,
2013-12-13 16:44:00,19.1,16.1,30.09,ENE,59,7.0,16.0,88,0.00,,,0.00,Wunderground v.1.15,2013-12-13 22:44:00,
2013-12-13 16:49:00,18.9,15.9,30.09,NE,38,7.0,16.0,88,0.00,,,0.00,Wunderground v.1.15,2013-12-13 22:49:00,
2013-12-13 16:51:00,18.8,15.8,30.09,NE,50,7.0,16.0,88,0.00,,,0.00,Wunderground v.1.15,2013-12-13 22:51:00,
2013-12-13 16:56:00,18.6,15.6,30.09,ENE,62,8.0,16.0,88,0.00,,,0.00,Wunderground v.1.15,2013-12-13 22:56:00,
2013-12-13 16:58:00,18.5,15.5,30.09,ENE,60,8.0,16.0,88,0.00,,,0.00,Wunderground v.1.15,2013-12-13 22:58:00,
2013-12-13 17:00:00,18.3,15.3,30.09,NE,54,9.0,16.0,88,0.00,,,0.00,Wunderground v.1.15,2013-12-13 23:00:00,
2013-12-13 17:06:00,18.0,15.0,30.09,NE,42,10.0,16.0,88,0.00,,,0.00,Wunderground v.1.15,2013-12-13 23:06:00,
2013-12-13 17:07:00,17.8,14.8,30.10,ENE,62,10.0,16.0,88,0.00,,,0.00,Wunderground v.1.15,2013-12-13 23:07:00,
2013-12-13 17:13:00,17.3,14.1,30.10,NE,44,10.0,17.0,87,0.00,,,0.00,Wunderground v.1.15,2013-12-13 23:13:00,
2013-12-13 17:16:00,17.1,13.9,30.10,ENE,57,10.0,17.0,87,0.00,,,0.00,Wunderground v.1.15,2013-12-13 23:16:00,
2013-12-13 17:18:00,17.0,13.8,30.10,NE,45,10.0,17.0,87,0.00,,,0.00,Wunderground v.1.15,2013-12-13 23:18:00,
2013-12-13 17:20:00,17.0,13.8,30.10,NE,39,10.0,16.0,87,0.00,,,0.00,Wunderground v.1.15,2013-12-13 23:20:00,
2013-12-13 17:24:00,16.8,13.9,30.10,NE,49,10.0,16.0,88,0.00,,,0.00,Wunderground v.1.15,2013-12-13 23:24:00,
2013-12-13 17:27:00,16.7,13.8,30.10,ENE,67,10.0,16.0,88,0.00,,,0.00,Wunderground v.1.15,2013-12-13 23:27:00,
2013-12-13 17:31:00,16.6,13.7,30.10,NE,46,9.0,16.0,88,0.00,,,0.00,Wunderground v.1.15,2013-12-13 23:31:00,
2013-12-13 17:35:00,16.6,13.7,30.11,NE,42,9.0,16.0,88,0.00,,,0.00,Wunderground v.1.15,2013-12-13 23:35:00,
2013-12-13 17:40:00,16.5,13.6,30.11,ENE,62,9.0,9.0,88,0.00,,,0.00,Wunderground v.1.15,2013-12-13 23:40:00,
2013-12-13 17:42:00,16.5,13.6,30.11,ENE,72,9.0,16.0,88,0.00,,,0.00,Wunderground v.1.15,2013-12-13 23:42:00,
2013-12-13 17:48:00,16.5,13.6,30.11,NE,42,9.0,16.0,88,0.00,,,0.00,Wunderground v.1.15,2013-12-13 23:48:00,
2013-12-13 17:51:00,16.4,13.5,30.11,NE,52,8.0,16.0,88,0.00,,,0.00,Wunderground v.1.15,2013-12-13 23:51:00,
2013-12-13 17:53:00,16.4,13.5,30.12,NE,56,8.0,16.0,88,0.00,,,0.00,Wunderground v.1.15,2013-12-13 23:53:00,
2013-12-13 18:00:00,16.4,13.5,30.11,NE,49,8.0,8.0,88,0.00,,,0.00,Wunderground v.1.15,2013-12-14 00:00:00,
2013-12-13 18:02:00,16.4,13.5,30.11,NNE,14,8.0,16.0,88,0.00,,,0.00,Wunderground v.1.15,2013-12-14 00:02:00,
2013-12-13 18:06:00,16.5,13.3,30.12,NE,56,9.0,16.0,87,0.00,,,0.00,Wunderground v.1.15,2013-12-14 00:06:00,
2013-12-13 18:08:00,16.5,13.3,30.12,NNE,23,9.0,16.0,87,0.00,,,0.00,Wunderground v.1.15,2013-12-14 00:08:00,
2013-12-13 18:11:00,16.4,13.2,30.12,NE,34,9.0,16.0,87,0.00,,,0.00,Wunderground v.1.15,2013-12-14 00:11:00,
2013-12-13 18:13:00,16.4,13.5,30.12,NE,44,9.0,16.0,88,0.00,,,0.00,Wunderground v.1.15,2013-12-14 00:13:00,
2013-12-13 18:15:00,16.3,13.1,30.12,NE,34,9.0,16.0,87,0.00,,,0.00,Wunderground v.1.15,2013-12-14 00:15:00,
2013-12-13 18:17:00,16.3,13.1,30.12,ENE,72,9.0,16.0,87,0.00,,,0.00,Wunderground v.1.15,2013-12-14 00:17:00,
2013-12-13 18:22:00,16.1,12.9,30.12,NE,47,9.0,16.0,87,0.00,,,0.00,Wunderground v.1.15,2013-12-14 00:22:00,
2013-12-13 18:24:00,16.0,12.8,30.12,NE,47,9.0,16.0,87,0.00,,,0.00,Wunderground v.1.15,2013-12-14 00:24:00,
2013-12-13 18:26:00,16.0,12.8,30.12,ENE,60,9.0,16.0,87,0.00,,,0.00,Wunderground v.1.15,2013-12-14 00:26:00,
2013-12-13 18:28:00,15.9,12.7,30.12,NNE,33,9.0,16.0,87,0.00,,,0.00,Wunderground v.1.15,2013-12-14 00:28:00,
2013-12-13 18:30:00,15.8,12.6,30.13,NE,46,9.0,16.0,87,0.00,,,0.00,Wunderground v.1.15,2013-12-14 00:30:00,
2013-12-13 18:33:00,15.7,12.5,30.13,NE,49,9.0,16.0,87,0.00,,,0.00,Wunderground v.1.15,2013-12-14 00:33:00,
2013-12-13 18:35:00,15.6,12.7,30.13,ENE,60,8.0,16.0,88,0.00,,,0.00,Wunderground v.1.15,2013-12-14 00:35:00,
2013-12-13 18:37:00,15.6,12.7,30.13,NE,44,8.0,16.0,88,0.00,,,0.00,Wunderground v.1.15,2013-12-14 00:37:00,
2013-12-13 18:39:00,15.5,12.6,30.13,NE,42,8.0,16.0,88,0.00,,,0.00,Wunderground v.1.15,2013-12-14 00:39:00,
2013-12-13 18:42:00,15.5,12.6,30.13,NE,47,8.0,16.0,88,0.00,,,0.00,Wunderground v.1.15,2013-12-14 00:42:00,
2013-12-13 18:44:00,15.5,12.6,30.13,NE,45,8.0,16.0,88,0.00,,,0.00,Wunderground v.1.15,2013-12-14 00:44:00,
2013-12-13 18:46:00,15.5,12.6,30.13,NE,56,8.0,16.0,88,0.00,,,0.00,Wunderground v.1.15,2013-12-14 00:46:00,
2013-12-13 18:48:00,15.5,12.6,30.13,NNE,27,9.0,16.0,88,0.00,,,0.00,Wunderground v.1.15,2013-12-14 00:48:00,
2013-12-13 18:50:00,15.5,12.6,30.13,NE,52,9.0,9.0,88,0.00,,,0.00,Wunderground v.1.15,2013-12-14 00:50:00,
2013-12-13 18:53:00,15.4,12.5,30.13,NE,49,8.0,16.0,88,0.00,,,0.00,Wunderground v.1.15,2013-12-14 00:53:00,
2013-12-13 18:55:00,15.4,12.5,30.13,NE,52,8.0,16.0,88,0.00,,,0.00,Wunderground v.1.15,2013-12-14 00:55:00,
2013-12-13 18:59:00,15.4,12.5,30.13,NE,40,8.0,8.0,88,0.00,,,0.00,Wunderground v.1.15,2013-12-14 00:59:00,
2013-12-13 19:02:00,15.4,12.5,30.13,ENE,73,8.0,16.0,88,0.00,,,0.00,Wunderground v.1.15,2013-12-14 01:02:00,
2013-12-13 19:08:00,15.4,12.5,30.14,NE,49,9.0,16.0,88,0.00,,,0.00,Wunderground v.1.15,2013-12-14 01:08:00,
2013-12-13 19:10:00,15.4,12.5,30.13,NE,56,9.0,9.0,88,0.00,,,0.00,Wunderground v.1.15,2013-12-14 01:10:00,
2013-12-13 19:12:00,15.4,12.5,30.14,NE,52,9.0,16.0,88,0.00,,,0.00,Wunderground v.1.15,2013-12-14 01:12:00,
2013-12-13 19:14:00,15.3,12.1,30.14,ENE,57,9.0,16.0,87,0.00,,,0.00,Wunderground v.1.15,2013-12-14 01:14:00,
2013-12-13 19:15:00,15.3,12.1,30.14,ENE,70,9.0,16.0,87,0.00,,,0.00,Wunderground v.1.15,2013-12-14 01:15:00,
2013-12-13 19:17:00,15.3,12.1,30.14,NNE,26,9.0,16.0,87,0.00,,,0.00,Wunderground v.1.15,2013-12-14 01:17:00,
2013-12-13 19:19:00,15.2,12.0,30.14,NE,53,9.0,16.0,87,0.00,,,0.00,Wunderground v.1.15,2013-12-14 01:19:00,
2013-12-13 19:21:00,15.3,12.1,30.14,NNE,30,10.0,16.0,87,0.00,,,0.00,Wunderground v.1.15,2013-12-14 01:21:00,
2013-12-13 19:24:00,15.2,12.0,30.14,NE,52,10.0,16.0,87,0.00,,,0.00,Wunderground v.1.15,2013-12-14 01:24:00,
2013-12-13 19:26:00,15.2,12.0,30.14,NE,52,9.0,16.0,87,0.00,,,0.00,Wunderground v.1.15,2013-12-14 01:26:00,
2013-12-13 19:28:00,15.2,12.0,30.14,NE,44,10.0,16.0,87,0.00,,,0.00,Wunderground v.1.15,2013-12-14 01:28:00,
2013-12-13 19:30:00,15.2,12.0,30.14,NE,46,10.0,16.0,87,0.00,,,0.00,Wunderground v.1.15,2013-12-14 01:30:00,
2013-12-13 19:34:00,15.1,11.9,30.14,NE,46,10.0,16.0,87,0.00,,,0.00,Wunderground v.1.15,2013-12-14 01:34:00,
2013-12-13 19:39:00,15.1,11.9,30.14,ENE,61,9.0,9.0,87,0.00,,,0.00,Wunderground v.1.15,2013-12-14 01:39:00,
2013-12-13 19:41:00,15.0,11.8,30.15,NE,50,9.0,10.0,87,0.00,,,0.00,Wunderground v.1.15,2013-12-14 01:41:00,
2013-12-13 19:43:00,14.9,11.7,30.14,North,11,8.0,16.0,87,0.00,,,0.00,Wunderground v.1.15,2013-12-14 01:43:00,
2013-12-13 19:46:00,14.9,11.7,30.15,NE,52,9.0,16.0,87,0.00,,,0.00,Wunderground v.1.15,2013-12-14 01:46:00,
2013-12-13 19:48:00,14.8,11.6,30.15,NE,53,10.0,16.0,87,0.00,,,0.00,Wunderground v.1.15,2013-12-14 01:48:00,
2013-12-13 19:50:00,14.8,11.6,30.15,NE,41,10.0,10.0,87,0.00,,,0.00,Wunderground v.1.15,2013-12-14 01:50:00,
2013-12-13 19:52:00,14.7,11.5,30.15,NE,55,11.0,14.0,87,0.00,,,0.00,Wunderground v.1.15,2013-12-14 01:52:00,
2013-12-13 19:54:00,14.7,11.5,30.15,NE,49,12.0,16.0,87,0.00,,,0.00,Wunderground v.1.15,2013-12-14 01:54:00,
2013-12-13 19:59:00,14.6,11.4,30.16,ENE,60,11.0,16.0,87,0.00,,,0.00,Wunderground v.1.15,2013-12-14 01:59:00,
2013-12-13 20:01:00,14.6,11.4,30.16,ENE,78,11.0,16.0,87,0.00,,,0.00,Wunderground v.1.15,2013-12-14 02:01:00,
2013-12-13 20:06:00,14.5,11.3,30.15,NE,41,10.0,16.0,87,0.00,,,0.00,Wunderground v.1.15,2013-12-14 02:06:00,
2013-12-13 20:08:00,14.5,11.3,30.15,NE,51,10.0,16.0,87,0.00,,,0.00,Wunderground v.1.15,2013-12-14 02:08:00,
2013-12-13 20:12:00,14.5,11.3,30.16,NE,49,10.0,16.0,87,0.00,,,0.00,Wunderground v.1.15,2013-12-14 02:12:00,
2013-12-13 20:14:00,14.5,11.3,30.16,NE,55,10.0,16.0,87,0.00,,,0.00,Wunderground v.1.15,2013-12-14 02:14:00,
2013-12-13 20:18:00,14.5,11.3,30.16,NE,45,10.0,16.0,87,0.00,,,0.00,Wunderground v.1.15,2013-12-14 02:18:00,
2013-12-13 20:19:00,14.5,11.3,30.16,NE,50,10.0,16.0,87,0.00,,,0.00,Wunderground v.1.15,2013-12-14 02:19:00,
2013-12-13 20:21:00,14.5,11.3,30.16,NE,52,11.0,16.0,87,0.00,,,0.00,Wunderground v.1.15,2013-12-14 02:21:00,
2013-12-13 20:25:00,14.5,11.3,30.16,NE,49,10.0,16.0,87,0.00,,,0.00,Wunderground v.1.15,2013-12-14 02:25:00,
2013-12-13 20:28:00,14.5,11.3,30.16,NE,47,9.0,16.0,87,0.00,,,0.00,Wunderground v.1.15,2013-12-14 02:28:00,
2013-12-13 20:30:00,14.5,11.3,30.16,NE,51,9.0,9.0,87,0.00,,,0.00,Wunderground v.1.15,2013-12-14 02:30:00,
2013-12-13 20:32:00,14.5,11.3,30.16,NE,55,9.0,16.0,87,0.00,,,0.00,Wunderground v.1.15,2013-12-14 02:32:00,
2013-12-13 20:36:00,14.5,11.3,30.16,NE,46,10.0,16.0,87,0.00,,,0.00,Wunderground v.1.15,2013-12-14 02:36:00,
2013-12-13 20:38:00,14.5,11.3,30.16,NE,37,11.0,16.0,87,0.00,,,0.00,Wunderground v.1.15,2013-12-14 02:38:00,
2013-12-13 20:39:00,14.5,11.3,30.16,NNE,19,11.0,16.0,87,0.00,,,0.00,Wunderground v.1.15,2013-12-14 02:39:00,
2013-12-13 20:41:00,14.5,11.3,30.16,NE,47,11.0,16.0,87,0.00,,,0.00,Wunderground v.1.15,2013-12-14 02:41:00,
2013-12-13 20:43:00,14.5,11.3,30.16,ENE,60,11.0,16.0,87,0.00,,,0.00,Wunderground v.1.15,2013-12-14 02:43:00,
2013-12-13 20:45:00,14.6,11.4,30.16,NE,55,11.0,16.0,87,0.00,,,0.00,Wunderground v.1.15,2013-12-14 02:45:00,
2013-12-13 20:47:00,14.6,11.4,30.16,NE,50,11.0,16.0,87,0.00,,,0.00,Wunderground v.1.15,2013-12-14 02:47:00,
2013-12-13 20:52:00,14.6,11.4,30.16,NE,41,10.0,16.0,87,0.00,,,0.00,Wunderground v.1.15,2013-12-14 02:52:00,
2013-12-13 20:54:00,14.6,11.4,30.16,NE,46,9.0,16.0,87,0.00,,,0.00,Wunderground v.1.15,2013-12-14 02:54:00,
2013-12-13 20:56:00,14.7,11.5,30.16,ENE,60,9.0,16.0,87,0.00,,,0.00,Wunderground v.1.15,2013-12-14 02:56:00,
2013-12-13 20:58:00,14.7,11.5,30.16,NE,40,9.0,16.0,87,0.00,,,0.00,Wunderground v.1.15,2013-12-14 02:58:00,
2013-12-13 21:00:00,14.7,11.5,30.16,NE,41,9.0,9.0,87,0.00,,,0.00,Wunderground v.1.15,2013-12-14 03:00:00,
2013-12-13 21:01:00,14.7,11.5,30.16,ENE,58,9.0,16.0,87,0.00,,,0.00,Wunderground v.1.15,2013-12-14 03:01:00,
2013-12-13 21:03:00,14.7,11.5,30.16,NNE,29,8.0,16.0,87,0.00,,,0.00,Wunderground v.1.15,2013-12-14 03:03:00,
2013-12-13 21:05:00,14.7,11.5,30.16,NNE,31,8.0,16.0,87,0.00,,,0.00,Wunderground v.1.15,2013-12-14 03:05:00,
2013-12-13 21:10:00,14.7,11.5,30.16,NE,41,9.0,9.0,87,0.00,,,0.00,Wunderground v.1.15,2013-12-14 03:10:00,
2013-12-13 21:12:00,14.7,11.5,30.16,NE,55,8.0,16.0,87,0.00,,,0.00,Wunderground v.1.15,2013-12-14 03:12:00,
2013-12-13 21:14:00,14.7,11.5,30.16,NE,34,9.0,16.0,87,0.00,,,0.00,Wunderground v.1.15,2013-12-14 03:14:00,
2013-12-13 21:16:00,14.7,11.5,30.16,NE,52,9.0,16.0,87,0.00,,,0.00,Wunderground v.1.15,2013-12-14 03:16:00,
2013-12-13 21:18:00,14.7,11.5,30.17,NE,36,9.0,16.0,87,0.00,,,0.00,Wunderground v.1.15,2013-12-14 03:18:00,
2013-12-13 21:20:00,14.7,11.5,30.17,NE,49,10.0,10.0,87,0.00,,,0.00,Wunderground v.1.15,2013-12-14 03:20:00,
2013-12-13 21:23:00,14.7,11.5,30.17,NE,45,10.0,16.0,87,0.00,,,0.00,Wunderground v.1.15,2013-12-14 03:23:00,
2013-12-13 21:25:00,14.7,11.5,30.17,NE,52,10.0,16.0,87,0.00,,,0.00,Wunderground v.1.15,2013-12-14 03:25:00,
2013-12-13 21:29:00,14.7,11.3,30.17,ENE,75,9.0,16.0,86,0.00,,,0.00,Wunderground v.1.15,2013-12-14 03:29:00,
2013-12-13 21:34:00,14.8,11.4,30.17,NE,39,9.0,16.0,86,0.00,,,0.00,Wunderground v.1.15,2013-12-14 03:34:00,
2013-12-13 21:36:00,14.7,11.3,30.18,NE,47,9.0,16.0,86,0.00,,,0.00,Wunderground v.1.15,2013-12-14 03:36:00,
2013-12-13 21:42:00,14.7,11.3,30.18,NE,51,10.0,16.0,86,0.00,,,0.00,Wunderground v.1.15,2013-12-14 03:42:00,
2013-12-13 21:44:00,14.7,11.3,30.18,NE,45,10.0,16.0,86,0.00,,,0.00,Wunderground v.1.15,2013-12-14 03:44:00,
2013-12-13 21:45:00,14.7,11.3,30.18,NE,52,11.0,16.0,86,0.00,,,0.00,Wunderground v.1.15,2013-12-14 03:45:00,
2013-12-13 21:47:00,14.6,11.2,30.18,NE,47,11.0,16.0,86,0.00,,,0.00,Wunderground v.1.15,2013-12-14 03:47:00,
2013-12-13 21:49:00,14.6,11.2,30.18,ESE,113,11.0,11.0,86,0.00,,,0.00,Wunderground v.1.15,2013-12-14 03:49:00,
2013-12-13 21:51:00,14.5,11.1,30.18,NE,42,11.0,16.0,86,0.00,,,0.00,Wunderground v.1.15,2013-12-14 03:51:00,
2013-12-13 21:56:00,14.5,11.1,30.18,NNE,20,11.0,16.0,86,0.00,,,0.00,Wunderground v.1.15,2013-12-14 03:56:00,
2013-12-13 21:58:00,14.5,11.1,30.18,NE,42,11.0,16.0,86,0.00,,,0.00,Wunderground v.1.15,2013-12-14 03:58:00,
2013-12-13 22:00:00,14.5,11.1,30.18,NNE,31,11.0,11.0,86,0.00,,,0.00,Wunderground v.1.15,2013-12-14 04:00:00,
2013-12-13 22:02:00,14.4,11.0,30.18,NE,49,10.0,16.0,86,0.00,,,0.00,Wunderground v.1.15,2013-12-14 04:02:00,
2013-12-13 22:04:00,14.4,11.0,30.18,NNE,30,10.0,16.0,86,0.00,,,0.00,Wunderground v.1.15,2013-12-14 04:04:00,
2013-12-13 22:06:00,14.4,11.0,30.18,NE,40,10.0,16.0,86,0.00,,,0.00,Wunderground v.1.15,2013-12-14 04:06:00,
2013-12-13 22:08:00,14.4,11.0,30.18,NE,44,10.0,16.0,86,0.00,,,0.00,Wunderground v.1.15,2013-12-14 04:08:00,
2013-12-13 22:11:00,14.3,10.9,30.18,NE,39,10.0,16.0,86,0.00,,,0.00,Wunderground v.1.15,2013-12-14 04:11:00,
2013-12-13 22:16:00,14.3,10.9,30.18,NE,36,10.0,16.0,86,0.00,,,0.00,Wunderground v.1.15,2013-12-14 04:16:00,
2013-12-13 22:18:00,14.3,10.9,30.18,NE,46,10.0,16.0,86,0.00,,,0.00,Wunderground v.1.15,2013-12-14 04:18:00,
2013-12-13 22:22:00,14.2,10.8,30.18,NE,47,10.0,16.0,86,0.00,,,0.00,Wunderground v.1.15,2013-12-14 04:22:00,
2013-12-13 22:26:00,14.2,10.8,30.18,NE,39,10.0,16.0,86,0.00,,,0.00,Wunderground v.1.15,2013-12-14 04:26:00,
2013-12-13 22:28:00,14.2,10.8,30.19,NE,49,10.0,16.0,86,0.00,,,0.00,Wunderground v.1.15,2013-12-14 04:28:00,
2013-12-13 22:31:00,14.2,10.8,30.19,NE,52,10.0,11.0,86,0.00,,,0.00,Wunderground v.1.15,2013-12-14 04:31:00,
2013-12-13 22:33:00,14.2,10.8,30.19,NNE,31,10.0,16.0,86,0.00,,,0.00,Wunderground v.1.15,2013-12-14 04:33:00,
2013-12-13 22:35:00,14.2,10.8,30.19,NE,53,10.0,16.0,86,0.00,,,0.00,Wunderground v.1.15,2013-12-14 04:35:00,
2013-12-13 22:37:00,14.2,10.8,30.19,NE,52,10.0,16.0,86,0.00,,,0.00,Wunderground v.1.15,2013-12-14 04:37:00,
2013-12-13 22:42:00,14.1,10.7,30.19,NE,49,10.0,16.0,86,0.00,,,0.00,Wunderground v.1.15,2013-12-14 04:42:00,
2013-12-13 22:44:00,14.1,10.7,30.19,NE,47,10.0,16.0,86,0.00,,,0.00,Wunderground v.1.15,2013-12-14 04:44:00,
2013-12-13 22:46:00,14.1,10.7,30.19,NE,47,10.0,16.0,86,0.00,,,0.00,Wunderground v.1.15,2013-12-14 04:46:00,
2013-12-13 22:48:00,14.1,10.7,30.19,NE,34,9.0,16.0,86,0.00,,,0.00,Wunderground v.1.15,2013-12-14 04:48:00,
2013-12-13 22:51:00,14.1,10.7,30.19,NE,34,9.0,16.0,86,0.00,,,0.00,Wunderground v.1.15,2013-12-14 04:51:00,
2013-12-13 22:53:00,14.1,10.7,30.19,ENE,67,9.0,16.0,86,0.00,,,0.00,Wunderground v.1.15,2013-12-14 04:53:00,
2013-12-13 22:55:00,14.1,10.7,30.19,NNE,27,9.0,16.0,86,0.00,,,0.00,Wunderground v.1.15,2013-12-14 04:55:00,
2013-12-13 22:57:00,14.0,10.6,30.19,NE,34,8.0,16.0,86,0.00,,,0.00,Wunderground v.1.15,2013-12-14 04:57:00,
2013-12-13 22:59:00,14.0,10.6,30.19,ENE,69,8.0,16.0,86,0.00,,,0.00,Wunderground v.1.15,2013-12-14 04:59:00,
2013-12-13 23:02:00,14.0,10.6,30.20,NE,52,8.0,16.0,86,0.00,,,0.00,Wunderground v.1.15,2013-12-14 05:02:00,
2013-12-13 23:04:00,14.0,10.6,30.19,ENE,69,9.0,16.0,86,0.00,,,0.00,Wunderground v.1.15,2013-12-14 05:04:00,
2013-12-13 23:08:00,14.0,10.6,30.19,NE,52,10.0,16.0,86,0.00,,,0.00,Wunderground v.1.15,2013-12-14 05:08:00,
2013-12-13 23:10:00,13.9,10.5,30.19,NE,44,10.0,16.0,86,0.00,,,0.00,Wunderground v.1.15,2013-12-14 05:10:00,
2013-12-13 23:12:00,13.9,10.5,30.19,NE,34,10.0,16.0,86,0.00,,,0.00,Wunderground v.1.15,2013-12-14 05:12:00,
2013-12-13 23:15:00,13.9,10.5,30.19,NNE,30,10.0,16.0,86,0.00,,,0.00,Wunderground v.1.15,2013-12-14 05:15:00,
2013-12-13 23:17:00,13.9,10.5,30.19,NE,49,10.0,16.0,86,0.00,,,0.00,Wunderground v.1.15,2013-12-14 05:17:00,
2013-12-13 23:22:00,13.9,10.5,30.19,ENE,57,9.0,16.0,86,0.00,,,0.00,Wunderground v.1.15,2013-12-14 05:22:00,
2013-12-13 23:24:00,13.9,10.5,30.19,NE,49,9.0,16.0,86,0.00,,,0.00,Wunderground v.1.15,2013-12-14 05:24:00,
2013-12-13 23:26:00,13.9,10.5,30.19,NE,40,9.0,16.0,86,0.00,,,0.00,Wunderground v.1.15,2013-12-14 05:26:00,
2013-12-13 23:28:00,13.9,10.5,30.19,NE,40,9.0,16.0,86,0.00,,,0.00,Wunderground v.1.15,2013-12-14 05:28:00,
2013-12-13 23:30:00,13.9,10.5,30.19,NNE,32,9.0,9.0,86,0.00,,,0.00,Wunderground v.1.15,2013-12-14 05:30:00,
2013-12-13 23:32:00,13.8,10.4,30.19,NE,52,10.0,10.0,86,0.00,,,0.00,Wunderground v.1.15,2013-12-14 05:32:00,
2013-12-13 23:36:00,13.8,10.4,30.19,NE,38,9.0,16.0,86,0.00,,,0.00,Wunderground v.1.15,2013-12-14 05:36:00,
2013-12-13 23:38:00,13.8,10.4,30.19,NE,50,9.0,16.0,86,0.00,,,0.00,Wunderground v.1.15,2013-12-14 05:38:00,
2013-12-13 23:44:00,13.8,10.6,30.19,NNE,29,7.0,16.0,87,0.00,,,0.00,Wunderground v.1.15,2013-12-14 05:44:00,
2013-12-13 23:46:00,13.7,10.5,30.19,NE,42,7.0,16.0,87,0.00,,,0.00,Wunderground v.1.15,2013-12-14 05:46:00,
2013-12-13 23:48:00,13.7,10.3,30.19,NE,40,8.0,16.0,86,0.00,,,0.00,Wunderground v.1.15,2013-12-14 05:48:00,
2013-12-13 23:50:00,13.6,10.2,30.19,NNE,20,8.0,8.0,86,0.00,,,0.00,Wunderground v.1.15,2013-12-14 05:50:00,
2013-12-13 23:54:00,13.6,10.5,30.19,NNE,24,7.0,16.0,87,0.00,,,0.00,Wunderground v.1.15,2013-12-14 05:54:00,
2013-12-13 23:56:00,13.5,10.4,30.20,NNE,31,8.0,16.0,87,0.00,,,0.00,Wunderground v.1.15,2013-12-14 05:56:00,